Time;durP1;ratioP1;P1;durP2;ratioP2;P2;SDS_P1;SDS_P2;PMS_P1;PMS_P2;Temp;Humidity;BMP_temperature;BMP_pressure;BME280_temperature;BME280_humidity;BME280_pressure;Samples;Min_cycle;Max_cycle;Signal;HPM_P1;HPM_P2
2022/11/08 00:03:31;;;;;;;7.15;4.50;;;;;;;;;;4972620;28;20104;-69
2022/11/08 00:14:09;;;;;;;7.70;5.03;;;;;;;;;;5002335;28;20847;-69
2022/11/08 00:16:34;;;;;;;7.13;4.60;;;;;;;;;;5002781;28;20136;-69
2022/11/08 00:19:00;;;;;;;6.15;4.50;;;;;;;;;;5001078;28;20053;-69
2022/11/08 00:21:25;;;;;;;6.75;4.35;;;;;;;;;;5002673;28;20057;-69
2022/11/08 00:23:51;;;;;;;6.35;4.63;;;;;;;;;;5002253;28;20054;-69
2022/11/08 00:26:17;;;;;;;9.60;5.25;;;;;;;;;;5001210;28;20038;-70
2022/11/08 00:28:42;;;;;;;9.93;4.88;;;;;;;;;;5002202;28;20521;-69
2022/11/08 00:31:07;;;;;;;5.88;4.50;;;;;;;;;;5002676;28;20045;-69
2022/11/08 00:33:33;;;;;;;7.05;4.43;;;;;;;;;;5003051;28;20042;-69
2022/11/08 00:36:01;;;;;;;5.72;4.38;;;;;;;;;;5001315;28;20129;-69
2022/11/08 00:38:26;;;;;;;4.32;3.22;;;;;;;;;;5002338;28;20049;-69
2022/11/08 00:40:52;;;;;;;6.10;4.25;;;;;;;;;;5002306;28;20046;-70
2022/11/08 00:43:17;;;;;;;9.15;3.92;;;;;;;;;;5002950;28;20050;-69
2022/11/08 00:45:43;;;;;;;4.88;3.88;;;;;;;;;;4998887;28;20144;-69
2022/11/08 00:48:08;;;;;;;6.47;3.60;;;;;;;;;;5001987;28;20133;-69
2022/11/08 00:50:37;;;;;;;5.22;3.95;;;;;;;;;;5002920;28;20052;-69
2022/11/08 00:53:03;;;;;;;7.45;4.28;;;;;;;;;;5000661;28;20056;-69
2022/11/08 00:55:28;;;;;;;8.18;4.20;;;;;;;;;;5002579;28;20046;-69
2022/11/08 00:57:54;;;;;;;5.50;4.03;;;;;;;;;;5001552;28;20033;-69
2022/11/08 01:00:19;;;;;;;4.70;3.72;;;;;;;;;;5001953;28;20042;-69
2022/11/08 01:02:45;;;;;;;7.22;3.90;;;;;;;;;;5002062;28;20042;-69
2022/11/08 01:05:10;;;;;;;5.60;3.70;;;;;;;;;;5002203;28;20034;-69
2022/11/08 01:07:37;;;;;;;5.05;3.97;;;;;;;;;;5001628;28;20406;-69
2022/11/08 01:10:04;;;;;;;6.82;4.35;;;;;;;;;;5016929;28;20529;-68
2022/11/08 01:12:29;;;;;;;7.03;4.30;;;;;;;;;;5002679;28;20105;-68
2022/11/08 01:14:54;;;;;;;5.20;4.07;;;;;;;;;;5002308;28;20062;-68
2022/11/08 01:17:20;;;;;;;4.65;3.72;;;;;;;;;;5002148;28;20451;-68
2022/11/08 01:19:45;;;;;;;8.68;3.85;;;;;;;;;;4991007;28;20525;-68
2022/11/08 01:22:11;;;;;;;4.07;3.67;;;;;;;;;;4998964;28;20053;-68
2022/11/08 01:24:36;;;;;;;8.50;3.63;;;;;;;;;;5015400;28;20514;-67
2022/11/08 01:27:02;;;;;;;8.55;3.72;;;;;;;;;;4999352;28;20848;-67
2022/11/08 01:29:27;;;;;;;5.63;3.63;;;;;;;;;;4999165;28;20053;-68
2022/11/08 01:31:53;;;;;;;5.88;3.75;;;;;;;;;;4999914;28;20053;-67
2022/11/08 01:34:18;;;;;;;4.85;3.25;;;;;;;;;;4999860;28;20026;-69
2022/11/08 01:36:44;;;;;;;6.03;3.78;;;;;;;;;;5001137;28;20085;-69
2022/11/08 01:39:10;;;;;;;10.52;3.90;;;;;;;;;;5001988;28;20096;-69
2022/11/08 01:41:37;;;;;;;4.45;3.58;;;;;;;;;;5001970;28;20133;-69
2022/11/08 01:44:02;;;;;;;5.53;3.70;;;;;;;;;;5002182;28;20053;-69
2022/11/08 01:46:37;;;;;;;5.15;3.47;;;;;;;;;;5001251;28;20056;-69
2022/11/08 01:49:24;;;;;;;4.28;3.60;;;;;;;;;;5002350;28;20129;-69
2022/11/08 01:52:09;;;;;;;5.18;3.13;;;;;;;;;;5003434;28;20096;-69
2022/11/08 01:54:58;;;;;;;7.28;3.03;;;;;;;;;;5003445;28;20065;-69
2022/11/08 01:57:29;;;;;;;5.28;3.33;;;;;;;;;;5000829;28;20593;-69
2022/11/08 02:00:00;;;;;;;3.85;3.45;;;;;;;;;;5002062;28;20544;-69
2022/11/08 02:02:26;;;;;;;4.03;3.30;;;;;;;;;;5001779;28;20041;-69
2022/11/08 02:04:53;;;;;;;3.47;3.10;;;;;;;;;;5004019;28;20505;-68
2022/11/08 02:07:19;;;;;;;4.22;3.10;;;;;;;;;;5004271;28;20054;-68
2022/11/08 02:09:47;;;;;;;4.13;3.30;;;;;;;;;;5002633;28;20049;-67
2022/11/08 02:12:13;;;;;;;5.88;3.63;;;;;;;;;;5002662;28;20046;-68
2022/11/08 02:14:39;;;;;;;10.45;4.10;;;;;;;;;;5002155;28;20177;-69
2022/11/08 02:17:06;;;;;;;5.45;3.53;;;;;;;;;;5001459;28;20157;-68
2022/11/08 02:19:43;;;;;;;4.82;3.22;;;;;;;;;;5000592;28;20038;-68
2022/11/08 02:22:32;;;;;;;5.90;2.88;;;;;;;;;;5001786;28;20453;-67
2022/11/08 02:24:57;;;;;;;4.05;2.92;;;;;;;;;;5001091;28;20046;-68
2022/11/08 02:27:24;;;;;;;5.43;3.33;;;;;;;;;;5000899;28;20042;-67
2022/11/08 02:29:53;;;;;;;4.45;3.20;;;;;;;;;;5000219;28;20140;-68
2022/11/08 02:32:19;;;;;;;3.88;2.88;;;;;;;;;;5000680;28;20716;-67
2022/11/08 02:34:49;;;;;;;3.38;2.53;;;;;;;;;;5000710;28;20061;-67
2022/11/08 02:37:18;;;;;;;7.30;2.70;;;;;;;;;;4998293;28;20050;-67
2022/11/08 02:39:45;;;;;;;4.15;3.22;;;;;;;;;;5000630;28;20689;-67
2022/11/08 02:42:19;;;;;;;3.97;2.88;;;;;;;;;;4999660;28;21126;-67
2022/11/08 02:44:45;;;;;;;3.85;2.60;;;;;;;;;;4999978;28;20081;-67
2022/11/08 02:47:11;;;;;;;3.95;2.80;;;;;;;;;;5000206;28;20513;-67
2022/11/08 02:49:36;;;;;;;3.40;2.60;;;;;;;;;;4997429;28;20041;-68
2022/11/08 02:52:03;;;;;;;3.25;2.75;;;;;;;;;;5000656;28;20855;-67
2022/11/08 02:54:28;;;;;;;5.15;2.65;;;;;;;;;;5001815;28;20033;-68
2022/11/08 02:56:54;;;;;;;3.55;2.58;;;;;;;;;;4997175;28;20042;-68
2022/11/08 02:59:19;;;;;;;3.40;2.92;;;;;;;;;;5003349;28;20038;-68
2022/11/08 03:01:44;;;;;;;3.90;2.63;;;;;;;;;;5005063;28;20052;-68
2022/11/08 03:04:10;;;;;;;5.07;3.00;;;;;;;;;;5004604;28;20041;-68
2022/11/08 03:06:35;;;;;;;4.20;2.75;;;;;;;;;;5004950;28;20054;-68
2022/11/08 03:09:01;;;;;;;3.30;2.75;;;;;;;;;;5004266;28;20096;-68
2022/11/08 03:11:26;;;;;;;3.13;2.78;;;;;;;;;;5005112;28;20095;-68
2022/11/08 03:13:52;;;;;;;3.67;2.50;;;;;;;;;;4997568;28;20494;-68
2022/11/08 03:16:17;;;;;;;3.17;2.88;;;;;;;;;;5003242;28;20045;-68
2022/11/08 03:18:42;;;;;;;6.28;2.92;;;;;;;;;;5002917;28;20092;-68
2022/11/08 03:21:08;;;;;;;3.53;3.08;;;;;;;;;;5004740;28;20060;-68
2022/11/08 03:23:35;;;;;;;6.85;2.88;;;;;;;;;;5005215;28;20077;-68
2022/11/08 03:26:02;;;;;;;3.92;2.15;;;;;;;;;;5003906;28;20149;-68
2022/11/08 03:28:27;;;;;;;2.90;2.42;;;;;;;;;;5004232;28;20585;-68
2022/11/08 03:30:53;;;;;;;2.58;2.38;;;;;;;;;;5004103;28;20038;-68
2022/11/08 03:33:19;;;;;;;2.70;2.10;;;;;;;;;;5004503;28;20445;-68
2022/11/08 03:35:46;;;;;;;3.30;2.17;;;;;;;;;;5002764;28;20074;-68
2022/11/08 03:38:11;;;;;;;3.55;2.42;;;;;;;;;;5004004;28;20119;-68
2022/11/08 03:40:37;;;;;;;5.47;2.65;;;;;;;;;;5004116;28;20500;-68
2022/11/08 03:43:02;;;;;;;8.43;2.58;;;;;;;;;;5019342;28;20506;-68
2022/11/08 03:45:27;;;;;;;2.42;2.22;;;;;;;;;;5004865;28;20046;-68
2022/11/08 03:47:53;;;;;;;3.70;2.70;;;;;;;;;;5004012;28;20054;-68
2022/11/08 03:50:18;;;;;;;2.53;2.33;;;;;;;;;;5005929;28;20049;-68
2022/11/08 03:52:49;;;;;;;3.33;1.80;;;;;;;;;;4998096;28;20073;-69
2022/11/08 03:55:16;;;;;;;2.58;1.85;;;;;;;;;;4998154;28;20045;-68
2022/11/08 03:57:43;;;;;;;3.03;2.60;;;;;;;;;;5006310;28;20061;-68
2022/11/08 04:00:10;;;;;;;1.73;1.63;;;;;;;;;;5005082;28;20057;-69
2022/11/08 04:02:39;;;;;;;3.30;2.30;;;;;;;;;;5005056;28;20127;-72
2022/11/08 04:05:07;;;;;;;3.30;2.10;;;;;;;;;;5003629;28;20494;-69
2022/11/08 04:07:33;;;;;;;2.35;2.10;;;;;;;;;;5004728;28;20038;-69
2022/11/08 04:09:58;;;;;;;3.17;2.28;;;;;;;;;;5002642;28;20120;-69
2022/11/08 04:15:16;;;;;;;4.43;2.22;;;;;;;;;;5003631;28;20050;-69
2022/11/08 04:23:26;;;;;;;2.90;1.90;;;;;;;;;;5000869;28;20073;-70
2022/11/08 04:25:57;;;;;;;2.45;2.00;;;;;;;;;;5004115;28;20042;-69
2022/11/08 04:28:31;;;;;;;3.47;2.30;;;;;;;;;;5004036;28;20556;-69
2022/11/08 04:30:59;;;;;;;3.47;2.20;;;;;;;;;;5003767;28;20548;-69
2022/11/08 04:33:25;;;;;;;3.25;2.13;;;;;;;;;;5005699;28;20038;-68
2022/11/08 04:35:51;;;;;;;3.58;2.08;;;;;;;;;;5005373;28;20056;-68
2022/11/08 04:38:17;;;;;;;1.98;1.67;;;;;;;;;;5006342;28;20059;-68
2022/11/08 04:40:43;;;;;;;4.93;2.20;;;;;;;;;;5005540;28;20046;-68
2022/11/08 04:43:08;;;;;;;4.03;1.73;;;;;;;;;;5004771;28;20157;-68
2022/11/08 04:45:34;;;;;;;2.03;1.80;;;;;;;;;;5005054;28;20188;-68
2022/11/08 04:47:59;;;;;;;4.20;2.00;;;;;;;;;;5005206;28;20058;-68
2022/11/08 04:50:25;;;;;;;5.53;1.63;;;;;;;;;;5005899;28;20061;-68
2022/11/08 04:52:52;;;;;;;2.63;2.05;;;;;;;;;;5004948;28;20056;-68
2022/11/08 04:55:19;;;;;;;3.25;1.90;;;;;;;;;;5005040;28;20042;-68
2022/11/08 04:57:44;;;;;;;3.78;1.85;;;;;;;;;;5004474;28;20082;-68
2022/11/08 05:00:11;;;;;;;2.28;2.08;;;;;;;;;;5005015;28;20149;-68
2022/11/08 05:02:36;;;;;;;2.92;2.10;;;;;;;;;;5003871;28;20049;-69
2022/11/08 05:05:02;;;;;;;2.58;2.10;;;;;;;;;;5000455;28;20453;-69
2022/11/08 05:07:28;;;;;;;2.35;2.00;;;;;;;;;;5001252;28;20153;-69
2022/11/08 05:09:54;;;;;;;4.35;2.60;;;;;;;;;;4999109;28;20506;-69
2022/11/08 05:12:20;;;;;;;2.60;2.15;;;;;;;;;;5001687;28;20072;-69
2022/11/08 05:14:46;;;;;;;3.65;2.67;;;;;;;;;;5001009;28;20049;-69
2022/11/08 05:17:11;;;;;;;2.28;2.05;;;;;;;;;;5001928;28;20511;-69
2022/11/08 05:25:05;;;;;;;3.25;2.40;;;;;;;;;;5000952;28;20115;-69
2022/11/08 05:27:30;;;;;;;4.22;2.45;;;;;;;;;;5001445;28;20041;-68
2022/11/08 05:29:56;;;;;;;4.40;2.20;;;;;;;;;;5001303;28;20140;-69
2022/11/08 05:32:21;;;;;;;2.50;2.15;;;;;;;;;;5001335;28;20038;-69
2022/11/08 05:34:47;;;;;;;3.00;2.00;;;;;;;;;;5000987;28;20507;-69
2022/11/08 05:37:12;;;;;;;2.67;2.17;;;;;;;;;;5000304;28;20156;-69
2022/11/08 05:39:38;;;;;;;3.72;2.10;;;;;;;;;;4999785;28;20161;-69
2022/11/08 05:42:03;;;;;;;6.05;2.40;;;;;;;;;;5000010;28;20054;-69
2022/11/08 05:44:30;;;;;;;2.30;2.10;;;;;;;;;;5000497;28;20052;-69
2022/11/08 05:46:55;;;;;;;6.45;2.35;;;;;;;;;;4999811;28;20041;-68
2022/11/08 05:49:21;;;;;;;5.63;2.40;;;;;;;;;;4999340;28;20445;-68
2022/11/08 05:51:46;;;;;;;2.72;2.33;;;;;;;;;;5000054;28;20030;-69
2022/11/08 05:54:12;;;;;;;3.42;2.50;;;;;;;;;;4991509;28;20462;-68
2022/11/08 05:56:38;;;;;;;2.03;1.73;;;;;;;;;;4999579;28;20054;-69
2022/11/08 05:59:04;;;;;;;2.88;2.33;;;;;;;;;;4997001;28;20505;-68
2022/11/08 06:01:30;;;;;;;3.67;2.42;;;;;;;;;;4999216;28;20104;-69
2022/11/08 06:03:55;;;;;;;2.65;2.20;;;;;;;;;;4999727;28;20046;-69
2022/11/08 06:06:21;;;;;;;2.00;1.80;;;;;;;;;;4999662;28;20124;-69
2022/11/08 06:08:48;;;;;;;4.13;2.20;;;;;;;;;;4998833;28;20072;-69
2022/11/08 06:11:16;;;;;;;4.28;2.47;;;;;;;;;;4999546;28;20120;-70
2022/11/08 06:13:42;;;;;;;2.92;2.45;;;;;;;;;;4995827;28;20057;-69
2022/11/08 06:16:11;;;;;;;2.00;1.88;;;;;;;;;;4998027;28;20045;-69
2022/11/08 06:18:37;;;;;;;2.45;2.10;;;;;;;;;;4998260;28;20103;-69
2022/11/08 06:21:05;;;;;;;4.82;2.08;;;;;;;;;;4997982;28;20066;-69
2022/11/08 06:23:30;;;;;;;3.72;1.92;;;;;;;;;;5000291;28;20072;-69
2022/11/08 06:25:57;;;;;;;6.47;2.50;;;;;;;;;;4999322;28;20054;-68
2022/11/08 06:28:22;;;;;;;2.70;2.17;;;;;;;;;;4999388;28;20057;-71
2022/11/08 06:30:48;;;;;;;2.47;2.22;;;;;;;;;;4996035;28;20045;-69
2022/11/08 06:33:14;;;;;;;3.00;2.42;;;;;;;;;;4999302;28;20048;-69
2022/11/08 06:35:39;;;;;;;2.90;2.40;;;;;;;;;;4999653;28;20184;-69
2022/11/08 06:38:05;;;;;;;2.60;2.40;;;;;;;;;;4999294;28;20490;-69
2022/11/08 06:40:31;;;;;;;4.05;2.58;;;;;;;;;;4999290;28;20152;-69
2022/11/08 06:42:57;;;;;;;3.45;2.47;;;;;;;;;;4998255;28;20406;-69
2022/11/08 06:45:24;;;;;;;3.40;2.63;;;;;;;;;;4996097;28;21384;-68
2022/11/08 06:47:59;;;;;;;4.07;2.78;;;;;;;;;;4999471;28;20569;-69
2022/11/08 06:50:24;;;;;;;4.80;2.78;;;;;;;;;;4999488;28;20049;-69
2022/11/08 06:53:03;;;;;;;6.07;2.78;;;;;;;;;;4998311;28;20026;-69
2022/11/08 06:55:29;;;;;;;4.63;2.60;;;;;;;;;;4999877;28;20053;-69
2022/11/08 06:57:55;;;;;;;4.32;2.78;;;;;;;;;;4999762;28;20048;-69
2022/11/08 07:00:21;;;;;;;2.83;2.50;;;;;;;;;;5000072;28;21140;-69
2022/11/08 07:02:54;;;;;;;6.03;2.88;;;;;;;;;;4999735;28;20046;-69
2022/11/08 07:05:20;;;;;;;2.63;1.88;;;;;;;;;;4999251;28;20060;-69
2022/11/08 07:07:50;;;;;;;2.75;1.85;;;;;;;;;;5000535;28;20053;-69
2022/11/08 07:10:17;;;;;;;2.70;2.30;;;;;;;;;;5001162;28;20050;-69
2022/11/08 07:12:43;;;;;;;2.92;2.28;;;;;;;;;;5000642;28;20049;-69
2022/11/08 07:15:09;;;;;;;2.13;1.90;;;;;;;;;;5000338;28;20054;-69
2022/11/08 07:17:34;;;;;;;2.25;2.05;;;;;;;;;;5000607;28;20057;-69
2022/11/08 07:19:59;;;;;;;2.80;1.95;;;;;;;;;;4999351;28;20054;-69
2022/11/08 07:22:25;;;;;;;1.92;1.63;;;;;;;;;;5000576;28;20073;-69
2022/11/08 07:24:50;;;;;;;3.47;1.80;;;;;;;;;;4999730;28;20038;-69
2022/11/08 07:27:16;;;;;;;2.72;2.05;;;;;;;;;;4999293;28;20045;-69
2022/11/08 07:29:41;;;;;;;3.95;1.55;;;;;;;;;;4999983;28;20509;-69
2022/11/08 07:32:06;;;;;;;2.55;1.90;;;;;;;;;;4999088;28;20141;-69
2022/11/08 07:34:32;;;;;;;2.30;1.42;;;;;;;;;;4999948;28;20053;-69
2022/11/08 07:36:57;;;;;;;3.10;1.70;;;;;;;;;;4998872;28;20052;-71
2022/11/08 07:39:23;;;;;;;1.83;1.63;;;;;;;;;;4999812;28;20060;-69
2022/11/08 07:41:48;;;;;;;2.20;1.90;;;;;;;;;;5000259;28;20153;-68
2022/11/08 07:44:14;;;;;;;2.17;1.63;;;;;;;;;;5000440;28;20139;-68
2022/11/08 07:46:39;;;;;;;1.70;1.60;;;;;;;;;;5018019;28;20045;-68
2022/11/08 07:49:04;;;;;;;3.08;2.13;;;;;;;;;;5001162;28;20053;-68
2022/11/08 07:51:30;;;;;;;5.32;1.70;;;;;;;;;;5017068;28;20053;-68
2022/11/08 07:53:55;;;;;;;1.70;1.60;;;;;;;;;;5002344;28;20041;-68
2022/11/08 07:56:21;;;;;;;3.83;1.90;;;;;;;;;;5002361;28;20053;-68
2022/11/08 07:58:46;;;;;;;6.38;1.55;;;;;;;;;;5000877;28;20041;-70
2022/11/08 08:01:12;;;;;;;1.98;1.50;;;;;;;;;;5002149;28;20490;-70
2022/11/08 08:03:37;;;;;;;2.90;1.75;;;;;;;;;;5002526;28;20042;-69
2022/11/08 08:06:03;;;;;;;1.80;1.48;;;;;;;;;;5002368;28;20367;-69
2022/11/08 08:08:28;;;;;;;1.80;1.40;;;;;;;;;;5003703;28;20763;-68
2022/11/08 08:10:58;;;;;;;1.52;1.42;;;;;;;;;;5003499;28;20141;-68
2022/11/08 08:13:24;;;;;;;2.42;1.60;;;;;;;;;;5004189;28;20045;-67
2022/11/08 08:15:49;;;;;;;1.30;1.20;;;;;;;;;;5004146;28;20065;-67
2022/11/08 08:18:16;;;;;;;1.50;1.23;;;;;;;;;;5003909;28;20088;-69
2022/11/08 08:20:42;;;;;;;2.05;1.35;;;;;;;;;;5002005;28;20620;-69
2022/11/08 08:23:07;;;;;;;2.13;1.50;;;;;;;;;;5003606;28;20062;-69
2022/11/08 08:25:33;;;;;;;1.25;1.15;;;;;;;;;;5002968;28;20092;-68
2022/11/08 08:27:59;;;;;;;1.83;1.35;;;;;;;;;;5003506;28;20045;-67
2022/11/08 08:30:26;;;;;;;1.70;1.13;;;;;;;;;;5003429;28;20525;-68
2022/11/08 08:32:59;;;;;;;5.20;1.40;;;;;;;;;;5002154;28;20057;-68
2022/11/08 08:35:24;;;;;;;4.78;1.40;;;;;;;;;;5003311;28;20050;-68
2022/11/08 08:37:50;;;;;;;1.50;1.40;;;;;;;;;;4994314;28;20061;-68
2022/11/08 08:40:15;;;;;;;2.85;1.40;;;;;;;;;;5003830;28;21033;-70
2022/11/08 08:42:41;;;;;;;2.05;1.25;;;;;;;;;;5002819;28;20093;-68
2022/11/08 08:45:07;;;;;;;3.42;1.55;;;;;;;;;;5002725;28;20068;-69
2022/11/08 08:47:32;;;;;;;1.90;1.40;;;;;;;;;;5001267;28;20526;-69
2022/11/08 08:49:58;;;;;;;2.53;1.40;;;;;;;;;;5002720;28;20056;-69
2022/11/08 08:52:23;;;;;;;4.00;1.10;;;;;;;;;;5002764;28;20065;-69
2022/11/08 08:54:48;;;;;;;1.83;1.30;;;;;;;;;;5016628;28;20037;-69
2022/11/08 08:57:14;;;;;;;2.17;1.02;;;;;;;;;;5002100;28;20054;-69
2022/11/08 08:59:39;;;;;;;1.27;1.17;;;;;;;;;;5017837;28;20045;-69
2022/11/08 09:02:05;;;;;;;2.55;1.30;;;;;;;;;;5002332;28;20183;-69
2022/11/08 09:04:30;;;;;;;2.70;1.23;;;;;;;;;;5001700;28;20054;-69
2022/11/08 09:06:56;;;;;;;1.77;1.20;;;;;;;;;;5001836;28;20046;-69
2022/11/08 09:09:21;;;;;;;5.60;1.10;;;;;;;;;;5001841;28;20052;-68
2022/11/08 09:11:47;;;;;;;1.50;1.40;;;;;;;;;;5002231;28;20089;-68
2022/11/08 09:14:13;;;;;;;3.72;1.40;;;;;;;;;;5013258;28;20080;-69
2022/11/08 09:16:38;;;;;;;2.50;1.10;;;;;;;;;;5001529;28;20041;-68
2022/11/08 09:19:04;;;;;;;1.83;1.42;;;;;;;;;;5000912;28;20126;-69
2022/11/08 09:21:29;;;;;;;1.90;1.10;;;;;;;;;;5002329;28;20448;-68
2022/11/08 09:23:55;;;;;;;1.45;1.17;;;;;;;;;;5002361;28;20561;-68
2022/11/08 09:26:20;;;;;;;3.88;1.30;;;;;;;;;;5000521;28;20042;-68
2022/11/08 09:28:46;;;;;;;1.90;1.13;;;;;;;;;;5000095;28;20041;-68
2022/11/08 09:31:12;;;;;;;3.17;1.20;;;;;;;;;;5001661;28;20415;-68
2022/11/08 09:33:39;;;;;;;1.40;1.30;;;;;;;;;;5000942;28;20116;-68
2022/11/08 09:36:06;;;;;;;1.73;1.40;;;;;;;;;;5001683;28;20054;-70
2022/11/08 09:38:32;;;;;;;3.70;1.20;;;;;;;;;;5000810;28;20567;-69
2022/11/08 09:41:05;;;;;;;3.08;1.15;;;;;;;;;;5001496;28;20050;-69
2022/11/08 09:43:45;;;;;;;1.60;1.10;;;;;;;;;;4995304;28;20052;-69
2022/11/08 09:46:40;;;;;;;2.30;1.17;;;;;;;;;;5001311;28;20496;-69
2022/11/08 09:49:12;;;;;;;5.35;2.40;;;;;;;;;;4962388;28;20061;-69
2022/11/08 09:51:39;;;;;;;1.33;1.20;;;;;;;;;;4992408;28;20049;-69
2022/11/08 09:54:07;;;;;;;1.70;1.50;;;;;;;;;;5001258;28;20050;-69
2022/11/08 09:56:37;;;;;;;1.83;1.40;;;;;;;;;;5001144;28;20124;-69
2022/11/08 09:59:11;;;;;;;1.40;1.25;;;;;;;;;;5000356;28;20068;-69
2022/11/08 10:01:37;;;;;;;1.33;1.23;;;;;;;;;;5001232;28;20038;-69
2022/11/08 10:04:13;;;;;;;1.77;1.40;;;;;;;;;;5000952;28;20085;-69
2022/11/08 10:06:48;;;;;;;1.88;1.60;;;;;;;;;;5001241;28;20137;-68
2022/11/08 10:09:19;;;;;;;2.03;1.70;;;;;;;;;;4977832;28;20054;-69
2022/11/08 10:12:24;;;;;;;1.88;1.50;;;;;;;;;;4999662;28;20077;-69
2022/11/08 10:15:26;;;;;;;7.15;1.35;;;;;;;;;;4998352;28;20054;-69
2022/11/08 10:18:19;;;;;;;1.63;1.52;;;;;;;;;;5000045;28;20060;-69
2022/11/08 10:21:26;;;;;;;3.53;1.50;;;;;;;;;;4998786;28;20566;-70
2022/11/08 10:24:08;;;;;;;2.60;1.17;;;;;;;;;;4960400;28;20076;-70
2022/11/08 10:26:41;;;;;;;1.40;1.30;;;;;;;;;;5001175;28;20054;-69
2022/11/08 10:29:38;;;;;;;1.95;1.73;;;;;;;;;;4997994;28;20050;-70
2022/11/08 10:32:16;;;;;;;1.40;1.30;;;;;;;;;;4991212;28;20056;-69
2022/11/08 10:35:11;;;;;;;2.45;1.50;;;;;;;;;;4999919;28;20040;-70
2022/11/08 10:37:38;;;;;;;1.67;1.30;;;;;;;;;;4990013;28;20046;-69
2022/11/08 10:40:29;;;;;;;1.40;1.30;;;;;;;;;;4999325;28;20056;-69
2022/11/08 10:43:03;;;;;;;1.73;1.30;;;;;;;;;;4998789;28;20407;-69
2022/11/08 10:45:28;;;;;;;3.15;1.30;;;;;;;;;;4999738;28;20490;-69
2022/11/08 10:47:54;;;;;;;2.35;1.10;;;;;;;;;;4988915;28;20061;-69
2022/11/08 10:50:45;;;;;;;2.03;0.88;;;;;;;;;;5000786;28;20088;-69
2022/11/08 10:53:25;;;;;;;1.27;1.20;;;;;;;;;;5000524;28;20041;-69
2022/11/08 10:55:57;;;;;;;1.00;1.00;;;;;;;;;;5016236;28;20041;-69
2022/11/08 10:58:31;;;;;;;2.20;1.48;;;;;;;;;;5002498;28;20045;-69
2022/11/08 11:01:12;;;;;;;1.15;1.05;;;;;;;;;;5002293;28;20049;-69
2022/11/08 11:03:37;;;;;;;1.20;1.10;;;;;;;;;;4999638;28;20071;-69
2022/11/08 11:06:05;;;;;;;3.28;1.17;;;;;;;;;;5000239;28;20049;-69
2022/11/08 11:08:31;;;;;;;2.78;1.00;;;;;;;;;;5001070;28;20099;-69
2022/11/08 11:11:22;;;;;;;1.83;1.05;;;;;;;;;;5000175;28;20192;-69
2022/11/08 11:14:17;;;;;;;3.05;1.15;;;;;;;;;;5000813;28;20091;-70
2022/11/08 11:17:07;;;;;;;2.15;1.05;;;;;;;;;;4998828;28;20049;-74
2022/11/08 11:19:33;;;;;;;1.35;1.20;;;;;;;;;;5001397;28;20050;-70
2022/11/08 11:22:05;;;;;;;5.00;1.23;;;;;;;;;;5019544;28;20503;-70
2022/11/08 11:24:31;;;;;;;;;;;;;;;;;;5004485;28;20060;-70
2022/11/08 11:26:56;;;;;;;1.42;1.13;;;;;;;;;;5003954;28;19968;-70
2022/11/08 11:29:33;;;;;;;1.73;1.63;;;;;;;;;;5002671;28;20045;-70
2022/11/08 11:32:24;;;;;;;1.65;1.40;;;;;;;;;;5004077;28;20048;-70
2022/11/08 11:34:51;;;;;;;1.50;1.40;;;;;;;;;;5003737;28;20038;-71
2022/11/08 11:37:24;;;;;;;1.40;1.30;;;;;;;;;;5019309;28;20050;-69
2022/11/08 11:40:04;;;;;;;2.38;1.15;;;;;;;;;;5002931;28;20050;-70
2022/11/08 11:42:36;;;;;;;4.03;1.40;;;;;;;;;;5003244;28;20080;-70
2022/11/08 11:45:07;;;;;;;3.45;1.70;;;;;;;;;;5003141;28;20042;-70
2022/11/08 11:47:46;;;;;;;1.83;1.50;;;;;;;;;;4995651;28;20116;-70
2022/11/08 11:50:30;;;;;;;5.00;1.60;;;;;;;;;;5002451;28;20038;-70
2022/11/08 11:52:58;;;;;;;1.52;1.42;;;;;;;;;;5003408;28;20112;-70
2022/11/08 11:56:03;;;;;;;5.05;1.73;;;;;;;;;;5004145;28;20038;-70
2022/11/08 11:59:00;;;;;;;1.33;1.23;;;;;;;;;;5003609;28;20041;-70
2022/11/08 12:02:08;;;;;;;2.33;1.80;;;;;;;;;;4961320;28;20133;-70
2022/11/08 12:04:55;;;;;;;3.53;1.40;;;;;;;;;;5003385;28;20120;-70
2022/11/08 12:07:26;;;;;;;5.82;1.48;;;;;;;;;;5000682;28;20048;-69
2022/11/08 12:09:57;;;;;;;2.03;1.80;;;;;;;;;;5003449;28;20060;-69
2022/11/08 12:12:58;;;;;;;2.13;1.77;;;;;;;;;;5002574;28;20046;-70
2022/11/08 12:15:47;;;;;;;2.25;1.50;;;;;;;;;;4985968;28;20053;-70
2022/11/08 12:18:31;;;;;;;4.80;1.42;;;;;;;;;;5003294;28;20050;-70
2022/11/08 12:20:56;;;;;;;2.95;1.60;;;;;;;;;;5002671;28;20073;-70
2022/11/08 12:23:40;;;;;;;1.55;1.45;;;;;;;;;;5002265;28;20558;-70
2022/11/08 12:26:11;;;;;;;1.73;1.15;;;;;;;;;;5002962;28;20061;-70
2022/11/08 12:28:46;;;;;;;2.10;1.40;;;;;;;;;;5003314;28;20045;-70
2022/11/08 12:31:20;;;;;;;4.15;1.50;;;;;;;;;;5001788;28;20042;-70
2022/11/08 12:34:04;;;;;;;2.05;1.40;;;;;;;;;;5001112;28;20064;-70
2022/11/08 12:37:09;;;;;;;3.28;1.90;;;;;;;;;;5002406;28;20446;-70
2022/11/08 12:39:45;;;;;;;2.85;1.75;;;;;;;;;;4999057;28;20490;-70
2022/11/08 12:42:50;;;;;;;2.22;1.70;;;;;;;;;;4990849;28;20065;-70
2022/11/08 12:45:20;;;;;;;3.55;1.33;;;;;;;;;;4921889;29;20059;-70
2022/11/08 12:48:16;;;;;;;4.88;1.27;;;;;;;;;;4911949;29;20428;-70
2022/11/08 12:50:47;;;;;;;3.20;1.75;;;;;;;;;;4978191;28;20069;-70
2022/11/08 12:53:38;;;;;;;2.67;1.67;;;;;;;;;;5000848;28;20489;-70
2022/11/08 12:56:09;;;;;;;2.53;1.65;;;;;;;;;;5001189;28;20502;-70
2022/11/08 12:58:41;;;;;;;2.27;1.53;;;;;;;;;;5002402;28;20041;-70
2022/11/08 13:01:11;;;;;;;2.30;1.60;;;;;;;;;;5013429;28;20287;-71
2022/11/08 13:03:43;;;;;;;2.25;1.52;;;;;;;;;;5002125;28;20080;-70
2022/11/08 13:06:16;;;;;;;;;;;;;;;;;;5002404;28;20115;-70
2022/11/08 13:08:48;;;;;;;4.70;1.83;;;;;;;;;;5001359;28;20442;-71
2022/11/08 13:11:45;;;;;;;1.55;1.42;;;;;;;;;;5001688;28;20046;-70
2022/11/08 13:14:17;;;;;;;1.95;1.77;;;;;;;;;;5001558;28;20489;-70
2022/11/08 13:17:04;;;;;;;3.75;1.70;;;;;;;;;;4999362;28;20037;-70
2022/11/08 13:19:50;;;;;;;1.80;1.70;;;;;;;;;;4972001;28;21047;-70
2022/11/08 13:22:27;;;;;;;2.40;1.80;;;;;;;;;;4987745;28;20056;-71
2022/11/08 13:24:57;;;;;;;4.25;1.65;;;;;;;;;;4999939;28;20433;-70
2022/11/08 13:27:37;;;;;;;4.47;1.70;;;;;;;;;;5000843;28;20038;-70
2022/11/08 13:30:15;;;;;;;1.98;1.63;;;;;;;;;;5000944;28;20049;-70
2022/11/08 13:32:50;;;;;;;3.22;1.60;;;;;;;;;;5001903;28;20050;-70
2022/11/08 13:35:22;;;;;;;3.00;1.67;;;;;;;;;;4999691;28;20088;-70
2022/11/08 13:37:47;;;;;;;;;;;;;;;;;;5003067;28;20045;-70
2022/11/08 13:40:25;;;;;;;2.65;1.50;;;;;;;;;;5000882;28;20461;-70
2022/11/08 13:43:13;;;;;;;2.25;1.70;;;;;;;;;;5000168;28;20046;-70
2022/11/08 13:45:39;;;;;;;2.65;1.70;;;;;;;;;;5001290;28;20180;-70
2022/11/08 13:48:23;;;;;;;4.90;1.80;;;;;;;;;;5003053;28;20137;-70
2022/11/08 13:50:55;;;;;;;5.05;1.83;;;;;;;;;;5001125;28;20046;-70
2022/11/08 13:53:20;;;;;;;1.63;1.30;;;;;;;;;;5001952;28;20042;-69
2022/11/08 13:55:57;;;;;;;3.95;1.40;;;;;;;;;;5001813;28;20285;-70
2022/11/08 13:58:29;;;;;;;1.70;1.50;;;;;;;;;;5001462;28;20045;-70
2022/11/08 14:00:55;;;;;;;1.30;1.20;;;;;;;;;;4999583;28;20045;-70
2022/11/08 14:03:33;;;;;;;2.63;1.52;;;;;;;;;;4999438;28;20490;-70
2022/11/08 14:06:04;;;;;;;2.00;1.42;;;;;;;;;;5000053;28;20073;-70
2022/11/08 14:08:58;;;;;;;1.48;1.35;;;;;;;;;;4999936;28;20056;-70
2022/11/08 14:11:27;;;;;;;1.50;1.40;;;;;;;;;;4987275;28;20045;-69
2022/11/08 14:14:13;;;;;;;1.85;1.25;;;;;;;;;;4999669;28;20129;-70
2022/11/08 14:16:51;;;;;;;1.58;1.48;;;;;;;;;;5000262;28;20597;-69
2022/11/08 14:19:23;;;;;;;1.40;1.30;;;;;;;;;;4987668;28;20510;-70
2022/11/08 14:21:55;;;;;;;1.63;1.40;;;;;;;;;;5000588;28;20045;-69
2022/11/08 14:24:25;;;;;;;1.50;1.40;;;;;;;;;;4999364;28;20112;-70
2022/11/08 14:26:51;;;;;;;2.85;1.30;;;;;;;;;;4999719;28;20050;-70
2022/11/08 14:29:19;;;;;;;1.75;1.42;;;;;;;;;;5000074;28;20045;-70
2022/11/08 14:31:45;;;;;;;3.58;1.38;;;;;;;;;;4999688;28;20053;-69
2022/11/08 14:34:46;;;;;;;1.50;1.40;;;;;;;;;;4999915;28;20048;-70
2022/11/08 14:37:22;;;;;;;2.88;1.40;;;;;;;;;;4938663;29;20050;-70
2022/11/08 14:39:48;;;;;;;3.10;1.50;;;;;;;;;;4992001;28;20042;-69
2022/11/08 14:42:32;;;;;;;2.75;1.63;;;;;;;;;;5000720;28;20046;-69
2022/11/08 14:44:57;;;;;;;4.43;1.70;;;;;;;;;;5000488;28;20042;-70
2022/11/08 14:47:25;;;;;;;3.47;1.40;;;;;;;;;;4999632;28;20442;-69
2022/11/08 14:49:51;;;;;;;5.32;1.50;;;;;;;;;;5000432;28;20056;-70
2022/11/08 14:52:18;;;;;;;2.45;1.70;;;;;;;;;;5000973;28;20042;-70
2022/11/08 14:54:46;;;;;;;1.38;1.27;;;;;;;;;;5000992;28;20081;-70
2022/11/08 14:57:36;;;;;;;2.28;1.40;;;;;;;;;;5003255;28;20246;-70
2022/11/08 15:00:20;;;;;;;3.25;1.70;;;;;;;;;;5004191;28;20173;-69
2022/11/08 15:02:59;;;;;;;1.83;1.63;;;;;;;;;;5004185;28;20042;-70
2022/11/08 15:05:53;;;;;;;3.03;1.80;;;;;;;;;;5004582;28;20057;-69
2022/11/08 15:08:46;;;;;;;4.88;1.63;;;;;;;;;;5001817;28;20100;-69
2022/11/08 15:11:27;;;;;;;7.13;1.58;;;;;;;;;;4994171;28;20042;-69
2022/11/08 15:13:55;;;;;;;5.40;1.63;;;;;;;;;;5004801;28;20049;-70
2022/11/08 15:16:22;;;;;;;2.45;1.65;;;;;;;;;;5003307;28;20049;-69
2022/11/08 15:18:47;;;;;;;2.20;1.70;;;;;;;;;;5003165;28;20057;-70
2022/11/08 15:21:28;;;;;;;1.58;1.40;;;;;;;;;;5003773;28;20046;-69
2022/11/08 15:24:14;;;;;;;1.63;1.35;;;;;;;;;;5004470;28;20093;-70
2022/11/08 15:26:57;;;;;;;6.35;1.73;;;;;;;;;;5004264;28;20053;-69
2022/11/08 15:29:24;;;;;;;3.88;1.83;;;;;;;;;;5000449;28;20490;-70